Time;durP1;ratioP1;P1;durP2;ratioP2;P2;SDS_P1;SDS_P2;PMS_P1;PMS_P2;Temp;Humidity;BMP_temperature;BMP_pressure;BME280_temperature;BME280_humidity;BME280_pressure;Samples;Min_cycle;Max_cycle;Signal;HPM_P1;HPM_P2
2023/04/29 00:00:17;;;;;;;18.80;11.40;;;12.10;99.90;;;;;;5095860;28;20251;-79
2023/04/29 00:02:44;;;;;;;19.90;11.67;;;12.00;99.90;;;;;;5095772;28;20667;-79
2023/04/29 00:05:11;;;;;;;20.40;11.83;;;12.00;99.90;;;;;;5096122;28;20292;-80
2023/04/29 00:07:37;;;;;;;19.47;12.10;;;12.00;99.90;;;;;;5095499;28;20240;-80
2023/04/29 00:10:05;;;;;;;22.13;13.47;;;11.90;99.90;;;;;;5095426;28;20320;-80
2023/04/29 00:12:32;;;;;;;21.87;12.33;;;11.90;99.90;;;;;;5095509;28;20543;-79
2023/04/29 00:15:01;;;;;;;22.23;12.63;;;11.90;99.90;;;;;;5095097;28;20225;-80
2023/04/29 00:17:28;;;;;;;21.03;12.37;;;11.90;99.90;;;;;;5095711;28;20202;-79
2023/04/29 00:19:55;;;;;;;21.77;12.83;;;11.90;99.90;;;;;;5095606;28;20228;-79
2023/04/29 00:22:22;;;;;;;20.33;12.60;;;11.90;99.90;;;;;;5095972;28;20667;-79
2023/04/29 00:24:49;;;;;;;21.73;12.83;;;11.90;99.90;;;;;;5094951;28;20201;-80
2023/04/29 00:27:16;;;;;;;20.23;12.23;;;11.90;99.90;;;;;;5095657;28;20209;-79
2023/04/29 00:29:43;;;;;;;21.83;12.97;;;11.90;99.90;;;;;;5095305;28;20308;-78
2023/04/29 00:32:11;;;;;;;20.37;12.20;;;11.90;99.90;;;;;;5095369;28;20259;-79
2023/04/29 00:34:38;;;;;;;21.70;13.00;;;11.80;99.90;;;;;;5096053;28;20208;-79
2023/04/29 00:37:05;;;;;;;21.97;12.80;;;11.80;99.90;;;;;;5095817;28;20563;-79
2023/04/29 00:39:32;;;;;;;23.10;14.07;;;11.80;99.90;;;;;;5095907;28;20221;-79
2023/04/29 00:41:59;;;;;;;24.73;14.37;;;11.80;99.90;;;;;;5095415;28;20201;-79
2023/04/29 00:44:26;;;;;;;24.57;14.53;;;11.80;99.90;;;;;;5095443;28;20202;-79
2023/04/29 00:46:53;;;;;;;27.03;15.60;;;11.90;99.90;;;;;;5096065;28;20208;-79
2023/04/29 00:49:21;;;;;;;28.20;16.50;;;11.70;99.90;;;;;;5095769;28;20225;-79
2023/04/29 00:51:49;;;;;;;29.03;16.47;;;11.70;99.90;;;;;;5095522;28;20225;-80
2023/04/29 00:54:17;;;;;;;28.00;16.57;;;11.70;99.90;;;;;;5094334;28;20206;-81
2023/04/29 00:56:46;;;;;;;30.03;17.70;;;11.70;99.90;;;;;;5094545;28;20202;-79
2023/04/29 00:59:14;;;;;;;30.13;18.10;;;11.70;99.90;;;;;;5094897;28;20231;-79
2023/04/29 01:01:41;;;;;;;29.97;16.27;;;11.70;99.90;;;;;;5094884;28;20205;-80
2023/04/29 01:04:08;;;;;;;31.07;17.87;;;11.60;99.90;;;;;;5095016;28;20734;-79
2023/04/29 01:06:49;;;;;;;29.00;17.53;;;11.60;99.90;;;;;;5095227;28;20201;-79
2023/04/29 01:09:29;;;;;;;28.40;16.97;;;11.70;99.90;;;;;;5094567;28;20221;-79
2023/04/29 01:12:08;;;;;;;28.93;16.33;;;11.60;99.90;;;;;;5101188;28;20204;-80
2023/04/29 01:14:37;;;;;;;31.80;18.07;;;11.60;99.90;;;;;;5115316;28;20252;-79
2023/04/29 01:17:10;;;;;;;31.17;16.60;;;11.60;99.90;;;;;;5115127;28;20291;-80
2023/04/29 01:19:52;;;;;;;31.67;17.40;;;11.60;99.90;;;;;;5114102;28;20709;-79
2023/04/29 01:22:21;;;;;;;32.27;18.10;;;11.60;99.90;;;;;;5115147;28;20223;-79
2023/04/29 01:24:49;;;;;;;32.93;17.73;;;11.60;99.90;;;;;;5113068;28;20200;-78
2023/04/29 01:27:25;;;;;;;34.10;18.63;;;11.60;99.90;;;;;;5114453;28;20197;-79
2023/04/29 01:29:59;;;;;;;34.20;18.33;;;11.60;99.90;;;;;;5114992;28;20583;-79
2023/04/29 01:32:35;;;;;;;31.03;16.70;;;11.60;99.90;;;;;;5115448;28;20611;-80
2023/04/29 01:35:11;;;;;;;31.93;17.87;;;11.60;99.90;;;;;;5115749;28;20197;-79
2023/04/29 01:37:46;;;;;;;30.83;17.47;;;11.50;99.90;;;;;;5115872;28;20560;-80
2023/04/29 01:40:19;;;;;;;29.20;15.63;;;11.50;99.90;;;;;;5115480;28;20702;-80
2023/04/29 01:42:51;;;;;;;32.00;16.00;;;11.50;99.90;;;;;;5115131;28;20276;-80
2023/04/29 01:45:20;;;;;;;31.00;16.73;;;11.60;99.90;;;;;;5115180;28;20276;-80
2023/04/29 01:47:47;;;;;;;30.73;15.30;;;11.50;99.90;;;;;;5115290;28;20197;-79
2023/04/29 01:50:14;;;;;;;31.57;16.30;;;11.50;99.90;;;;;;5115423;28;20251;-79
2023/04/29 01:52:41;;;;;;;29.53;15.83;;;11.50;99.90;;;;;;5115314;28;20209;-80
2023/04/29 01:55:09;;;;;;;31.17;16.03;;;11.50;99.90;;;;;;5114877;28;20208;-80
2023/04/29 01:57:38;;;;;;;29.13;15.03;;;11.50;99.90;;;;;;5115163;28;20319;-80
2023/04/29 02:00:05;;;;;;;30.00;16.27;;;11.50;99.90;;;;;;5114795;28;20608;-81
2023/04/29 02:02:32;;;;;;;30.77;15.63;;;11.50;99.90;;;;;;5115479;28;20688;-79
2023/04/29 02:04:59;;;;;;;27.40;14.97;;;11.50;99.90;;;;;;5118752;28;20258;-79
2023/04/29 02:07:26;;;;;;;29.70;16.07;;;11.40;99.90;;;;;;5119037;28;20663;-80
2023/04/29 02:09:53;;;;;;;27.73;14.80;;;11.40;99.90;;;;;;5118514;28;20260;-80
2023/04/29 02:12:20;;;;;;;29.00;15.27;;;11.40;99.90;;;;;;5118187;28;20316;-79
2023/04/29 02:14:51;;;;;;;28.37;15.37;;;11.40;99.90;;;;;;5119546;28;20228;-80
2023/04/29 02:17:18;;;;;;;26.93;14.80;;;11.50;99.90;;;;;;5119126;28;20192;-80
2023/04/29 02:19:45;;;;;;;26.07;13.97;;;11.40;99.90;;;;;;5118216;28;20231;-80
2023/04/29 02:22:12;;;;;;;27.93;14.50;;;11.30;99.90;;;;;;5118425;28;20283;-80
2023/04/29 02:24:39;;;;;;;27.07;14.80;;;11.20;99.90;;;;;;5116237;28;20204;-80
2023/04/29 02:27:06;;;;;;;26.43;13.37;;;11.20;99.90;;;;;;5118345;28;20299;-80
2023/04/29 02:29:33;;;;;;;25.57;12.87;;;11.20;99.90;;;;;;5118363;28;20557;-79
2023/04/29 02:32:01;;;;;;;25.67;13.97;;;11.10;99.90;;;;;;5118242;28;20741;-80
2023/04/29 02:34:28;;;;;;;25.70;13.50;;;11.10;99.90;;;;;;5117643;28;20201;-80
2023/04/29 02:36:55;;;;;;;26.13;14.33;;;11.00;99.90;;;;;;5117644;28;20651;-79
2023/04/29 02:39:21;;;;;;;26.83;14.27;;;11.00;99.90;;;;;;5105457;28;20222;-79
2023/04/29 02:41:48;;;;;;;24.53;13.17;;;11.00;99.90;;;;;;5096452;28;20194;-79
2023/04/29 02:44:15;;;;;;;26.33;14.67;;;11.00;99.90;;;;;;5105859;28;20650;-79
2023/04/29 02:46:44;;;;;;;26.23;13.87;;;10.90;99.90;;;;;;5113042;28;20197;-79
2023/04/29 02:49:13;;;;;;;25.33;14.03;;;10.90;99.90;;;;;;5117109;28;20221;-79
2023/04/29 02:51:41;;;;;;;26.37;14.13;;;10.90;99.90;;;;;;5110079;28;20225;-79
2023/04/29 02:54:08;;;;;;;25.90;13.70;;;10.80;99.90;;;;;;5095233;28;20201;-78
2023/04/29 02:56:34;;;;;;;24.90;13.53;;;10.90;99.90;;;;;;5105310;28;20228;-79
2023/04/29 02:59:01;;;;;;;25.00;14.13;;;10.80;99.90;;;;;;5100018;28;20711;-78
2023/04/29 03:01:28;;;;;;;21.60;12.13;;;10.70;99.90;;;;;;5096651;28;20202;-79
2023/04/29 03:03:56;;;;;;;19.13;10.17;;;10.70;99.90;;;;;;5114218;28;20234;-80
2023/04/29 03:06:24;;;;;;;19.87;9.33;;;10.70;99.90;;;;;;5096751;28;20197;-79
2023/04/29 03:08:51;;;;;;;15.13;8.20;;;10.70;99.90;;;;;;5097249;28;20229;-79
2023/04/29 03:11:18;;;;;;;14.37;8.10;;;10.60;99.90;;;;;;5096295;28;20244;-79
2023/04/29 03:13:46;;;;;;;16.27;8.20;;;10.60;99.90;;;;;;5096368;28;20209;-80
2023/04/29 03:16:15;;;;;;;15.17;8.10;;;10.60;99.90;;;;;;5095532;28;20197;-79
2023/04/29 03:18:42;;;;;;;18.40;9.80;;;10.50;99.90;;;;;;5095940;28;20217;-79
2023/04/29 03:21:09;;;;;;;20.20;10.77;;;10.40;99.90;;;;;;5096123;28;20198;-80
2023/04/29 03:23:39;;;;;;;21.00;11.80;;;10.30;99.90;;;;;;5108198;28;20197;-78
2023/04/29 03:26:06;;;;;;;25.43;14.17;;;10.30;99.90;;;;;;5116858;28;20224;-79
2023/04/29 03:28:32;;;;;;;25.57;14.27;;;10.20;99.90;;;;;;5113881;27;20205;-79
2023/04/29 03:30:59;;;;;;;26.40;14.57;;;10.30;99.90;;;;;;5116800;28;20610;-80
2023/04/29 03:33:26;;;;;;;29.07;16.33;;;10.10;99.90;;;;;;5116555;28;20205;-79
2023/04/29 03:35:53;;;;;;;27.07;15.90;;;10.20;99.90;;;;;;5117322;28;20197;-80
2023/04/29 03:38:20;;;;;;;27.73;17.20;;;10.10;99.90;;;;;;5117166;28;20205;-79
2023/04/29 03:40:48;;;;;;;28.67;16.67;;;10.10;99.90;;;;;;5116635;28;20216;-80
2023/04/29 03:43:15;;;;;;;29.97;16.03;;;10.10;99.90;;;;;;5116036;28;20729;-80
2023/04/29 03:45:42;;;;;;;31.30;17.83;;;10.10;99.90;;;;;;5098564;28;20194;-80
2023/04/29 03:48:09;;;;;;;31.97;18.57;;;10.10;99.90;;;;;;5095862;28;20636;-80
2023/04/29 03:50:36;;;;;;;32.27;17.37;;;10.00;99.90;;;;;;5095875;28;20220;-79
2023/04/29 03:53:03;;;;;;;30.67;17.57;;;9.90;99.90;;;;;;5096246;28;20212;-79
2023/04/29 03:55:30;;;;;;;30.07;18.20;;;9.90;99.90;;;;;;5095365;28;20210;-78
2023/04/29 03:57:58;;;;;;;29.10;18.23;;;9.90;99.90;;;;;;5096175;28;20201;-80
2023/04/29 04:00:25;;;;;;;29.93;18.83;;;9.80;99.90;;;;;;5094587;28;20245;-80
2023/04/29 04:02:52;;;;;;;28.87;17.83;;;9.80;99.90;;;;;;5096202;28;20190;-80
2023/04/29 04:05:20;;;;;;;29.60;19.37;;;9.80;99.90;;;;;;5105065;28;20240;-80
2023/04/29 04:07:47;;;;;;;31.07;20.33;;;9.80;99.90;;;;;;5114696;28;20254;-80
2023/04/29 04:10:14;;;;;;;29.57;19.87;;;9.80;99.90;;;;;;5107143;28;20301;-80
2023/04/29 04:12:40;;;;;;;31.57;19.67;;;9.80;99.90;;;;;;5094694;28;20264;-80
2023/04/29 04:15:09;;;;;;;31.40;19.67;;;9.70;99.90;;;;;;5094222;28;20205;-80
2023/04/29 04:17:36;;;;;;;32.43;20.77;;;9.70;99.90;;;;;;5103801;28;20603;-79
2023/04/29 04:20:04;;;;;;;32.73;19.03;;;9.70;99.90;;;;;;5106438;28;20224;-80
2023/04/29 04:22:33;;;;;;;31.67;20.07;;;9.70;99.90;;;;;;5094420;28;20206;-80
2023/04/29 04:25:00;;;;;;;34.03;21.23;;;9.70;99.90;;;;;;5100880;28;20254;-78
2023/04/29 04:27:26;;;;;;;30.23;19.83;;;9.70;99.90;;;;;;5097438;28;20288;-79
2023/04/29 04:29:54;;;;;;;30.77;19.53;;;9.70;99.90;;;;;;5094300;28;20232;-79
2023/04/29 04:32:23;;;;;;;35.67;22.67;;;9.70;99.90;;;;;;5107281;28;20578;-81
2023/04/29 04:34:50;;;;;;;33.27;20.53;;;9.60;99.90;;;;;;5103781;28;20606;-81
2023/04/29 04:37:17;;;;;;;33.23;21.00;;;9.60;99.90;;;;;;5112645;28;20660;-79
2023/04/29 04:39:44;;;;;;;36.73;23.70;;;9.60;99.90;;;;;;5113284;28;20221;-79
2023/04/29 04:42:11;;;;;;;39.60;22.97;;;9.60;99.90;;;;;;5113553;28;20211;-79
2023/04/29 04:44:38;;;;;;;36.80;22.33;;;9.60;99.90;;;;;;5113436;28;20208;-79
2023/04/29 04:47:05;;;;;;;37.67;22.13;;;9.60;99.90;;;;;;5114022;28;20864;-79
2023/04/29 04:49:33;;;;;;;38.93;22.70;;;9.60;99.90;;;;;;5113035;28;20704;-79
2023/04/29 04:52:02;;;;;;;36.67;22.87;;;9.60;99.90;;;;;;5113770;28;20248;-79
2023/04/29 04:54:29;;;;;;;38.23;22.53;;;9.60;99.90;;;;;;5114687;28;20654;-79
2023/04/29 04:56:56;;;;;;;36.87;22.30;;;9.50;99.90;;;;;;5114854;28;20293;-79
2023/04/29 04:59:23;;;;;;;39.07;23.40;;;9.60;99.90;;;;;;5093884;28;20239;-79
2023/04/29 05:01:50;;;;;;;38.90;24.77;;;9.60;99.90;;;;;;5103950;28;20284;-79
2023/04/29 05:04:17;;;;;;;37.13;24.00;;;9.60;99.90;;;;;;5111036;28;20714;-78
2023/04/29 05:06:46;;;;;;;41.23;23.30;;;9.60;99.90;;;;;;5103521;28;20205;-78
2023/04/29 05:09:13;;;;;;;42.07;25.13;;;9.60;99.90;;;;;;5101954;28;20309;-79
2023/04/29 05:11:41;;;;;;;42.97;26.03;;;9.70;99.90;;;;;;5109618;28;20224;-78
2023/04/29 05:14:08;;;;;;;41.20;24.77;;;9.60;99.90;;;;;;5105220;28;20198;-79
2023/04/29 05:16:35;;;;;;;42.47;24.53;;;9.50;99.90;;;;;;5114113;28;20225;-81
2023/04/29 05:19:02;;;;;;;43.87;25.47;;;9.60;99.90;;;;;;5105054;28;20213;-79
2023/04/29 05:21:29;;;;;;;43.90;24.63;;;9.60;99.90;;;;;;5098482;28;20206;-79
2023/04/29 05:23:57;;;;;;;44.97;25.93;;;9.60;99.90;;;;;;5106935;28;20608;-80
2023/04/29 05:26:24;;;;;;;48.00;27.60;;;9.60;99.90;;;;;;5111133;28;20254;-79
2023/04/29 05:28:51;;;;;;;48.93;26.47;;;9.60;99.90;;;;;;5100556;28;20218;-79
2023/04/29 05:31:18;;;;;;;51.00;28.30;;;9.60;99.90;;;;;;5106935;28;20212;-78
2023/04/29 05:33:45;;;;;;;47.53;26.53;;;9.60;99.90;;;;;;5110409;28;20196;-77
2023/04/29 05:36:12;;;;;;;49.93;27.83;;;9.50;99.90;;;;;;5106560;28;20225;-79
2023/04/29 05:38:39;;;;;;;53.77;30.17;;;9.50;99.90;;;;;;5110229;28;20201;-79
2023/04/29 05:41:07;;;;;;;52.90;28.87;;;9.40;99.90;;;;;;5114756;28;20194;-79
2023/04/29 05:43:34;;;;;;;56.03;31.27;;;9.40;99.90;;;;;;5116577;28;20666;-77
2023/04/29 05:46:01;;;;;;;51.47;28.97;;;9.40;99.90;;;;;;5121589;28;20197;-78
2023/04/29 05:48:28;;;;;;;50.60;30.47;;;9.40;99.90;;;;;;5105046;27;20205;-78
2023/04/29 05:50:55;;;;;;;56.20;31.83;;;9.30;99.90;;;;;;5121278;28;20938;-77
2023/04/29 05:53:22;;;;;;;55.63;31.70;;;9.40;99.90;;;;;;5116269;28;20228;-79
2023/04/29 05:55:49;;;;;;;59.87;32.73;;;9.30;99.90;;;;;;5107280;28;20220;-79
2023/04/29 05:58:18;;;;;;;60.23;30.97;;;9.30;99.90;;;;;;5115480;28;20216;-76
2023/04/29 06:00:48;;;;;;;57.43;32.40;;;9.30;99.90;;;;;;5107833;28;20307;-79
2023/04/29 06:03:15;;;;;;;55.20;31.43;;;9.30;99.90;;;;;;5115277;27;20220;-78
2023/04/29 06:05:42;;;;;;;52.50;30.10;;;9.30;99.90;;;;;;5105362;28;20230;-78
2023/04/29 06:08:09;;;;;;;47.60;29.10;;;9.20;99.90;;;;;;5105890;28;20202;-78
2023/04/29 06:10:36;;;;;;;48.97;29.80;;;9.20;99.90;;;;;;5121573;28;20236;-78
2023/04/29 06:13:03;;;;;;;48.63;29.13;;;9.20;99.90;;;;;;5111068;28;20228;-79
2023/04/29 06:15:31;;;;;;;47.57;28.57;;;9.20;99.90;;;;;;5115802;28;20565;-80
2023/04/29 06:17:58;;;;;;;46.23;27.50;;;9.20;99.90;;;;;;5125489;28;20197;-79
2023/04/29 06:20:26;;;;;;;43.03;27.17;;;9.30;99.90;;;;;;5123892;28;20216;-78
2023/04/29 06:22:52;;;;;;;45.73;26.47;;;9.20;99.90;;;;;;5118902;28;20256;-78
2023/04/29 06:25:22;;;;;;;44.37;27.40;;;9.30;99.90;;;;;;5110829;28;20288;-79
2023/04/29 06:27:49;;;;;;;39.43;25.03;;;9.30;99.90;;;;;;5118530;28;20207;-78
2023/04/29 06:30:16;;;;;;;41.97;25.17;;;9.30;99.90;;;;;;5115307;28;20244;-79
2023/04/29 06:32:44;;;;;;;41.20;24.90;;;9.30;99.90;;;;;;5113202;28;20220;-79
2023/04/29 06:35:11;;;;;;;42.90;26.53;;;9.30;99.90;;;;;;5125126;28;20197;-79
2023/04/29 06:37:38;;;;;;;39.27;24.80;;;9.30;99.90;;;;;;5116979;28;20295;-79
2023/04/29 06:40:06;;;;;;;42.53;25.37;;;9.40;99.90;;;;;;5115618;28;20227;-78
2023/04/29 06:42:33;;;;;;;43.13;26.37;;;9.40;99.90;;;;;;5113194;28;20201;-78
2023/04/29 06:45:00;;;;;;;44.33;26.07;;;9.30;99.90;;;;;;5107187;28;20296;-79
2023/04/29 06:47:27;;;;;;;43.20;26.27;;;9.40;99.90;;;;;;5102045;28;20206;-78
2023/04/29 06:49:56;;;;;;;41.60;25.47;;;9.30;99.90;;;;;;5114666;28;20651;-78
2023/04/29 06:52:22;;;;;;;42.87;26.13;;;9.40;99.90;;;;;;5106339;28;20218;-78
2023/04/29 06:54:49;;;;;;;45.80;26.87;;;9.40;99.90;;;;;;5113072;28;20214;-79
2023/04/29 06:57:16;;;;;;;42.90;24.67;;;9.50;99.90;;;;;;5114169;28;20232;-78
2023/04/29 06:59:43;;;;;;;45.37;25.70;;;9.50;99.90;;;;;;5122238;28;20255;-79
2023/04/29 07:02:10;;;;;;;39.47;23.83;;;9.60;99.90;;;;;;5104181;28;20259;-79
2023/04/29 07:04:37;;;;;;;39.63;24.50;;;9.60;99.90;;;;;;5113908;28;20197;-78
2023/04/29 07:07:05;;;;;;;38.93;23.63;;;9.50;99.90;;;;;;5110917;28;20201;-78
2023/04/29 07:09:33;;;;;;;43.00;25.53;;;9.70;99.90;;;;;;5118475;28;20250;-78
2023/04/29 07:12:01;;;;;;;39.10;24.03;;;9.60;99.90;;;;;;5121741;28;20599;-78
2023/04/29 07:14:28;;;;;;;36.00;21.20;;;9.50;99.90;;;;;;5117354;28;20295;-78
2023/04/29 07:16:55;;;;;;;38.33;22.97;;;9.50;99.90;;;;;;5112493;28;20675;-78
2023/04/29 07:19:22;;;;;;;35.77;21.57;;;9.60;99.90;;;;;;5113989;28;20254;-78
2023/04/29 07:21:48;;;;;;;36.93;23.33;;;9.70;99.90;;;;;;5117463;28;20225;-79
2023/04/29 07:24:17;;;;;;;35.03;21.23;;;9.70;99.90;;;;;;5111606;28;20687;-78
2023/04/29 07:26:44;;;;;;;34.33;20.97;;;9.70;99.90;;;;;;5115941;28;20208;-78
2023/04/29 07:29:11;;;;;;;28.30;18.13;;;9.70;99.90;;;;;;5106293;28;20222;-79
2023/04/29 07:31:38;;;;;;;33.57;21.10;;;9.70;99.90;;;;;;5108410;28;20193;-78
2023/04/29 07:34:04;;;;;;;31.43;18.50;;;9.80;99.90;;;;;;5112973;28;20785;-78
2023/04/29 07:36:32;;;;;;;31.33;19.60;;;9.80;99.90;;;;;;5116947;28;20193;-79
2023/04/29 07:38:59;;;;;;;30.73;19.83;;;9.90;99.90;;;;;;5114885;28;20300;-79
2023/04/29 07:41:28;;;;;;;29.93;19.50;;;10.20;99.90;;;;;;5116936;28;20205;-79
2023/04/29 07:43:54;;;;;;;27.87;17.87;;;10.30;99.90;;;;;;5114360;28;20197;-79
2023/04/29 07:46:22;;;;;;;27.17;17.63;;;10.40;99.90;;;;;;5119213;28;20199;-79
2023/04/29 07:48:48;;;;;;;29.93;17.87;;;10.50;99.90;;;;;;5109009;28;20212;-79
2023/04/29 07:51:15;;;;;;;29.33;18.07;;;10.50;99.90;;;;;;5115466;28;20201;-79
2023/04/29 07:53:43;;;;;;;29.23;17.80;;;10.60;99.90;;;;;;5124501;28;20244;-79
2023/04/29 07:56:10;;;;;;;25.80;16.90;;;10.90;99.90;;;;;;5116721;28;20617;-79
2023/04/29 07:58:38;;;;;;;29.07;17.80;;;11.10;99.90;;;;;;5115492;28;20207;-79
2023/04/29 08:01:09;;;;;;;26.50;17.40;;;11.30;99.90;;;;;;5115639;28;20672;-79
2023/04/29 08:03:36;;;;;;;27.80;18.50;;;11.70;99.90;;;;;;5111883;28;20280;-79
2023/04/29 08:06:03;;;;;;;26.60;17.87;;;11.60;99.90;;;;;;5111881;28;20202;-79
2023/04/29 08:08:31;;;;;;;26.43;17.17;;;11.70;99.90;;;;;;5119766;28;20205;-78
2023/04/29 08:10:58;;;;;;;26.23;18.23;;;11.70;99.90;;;;;;5115087;28;20193;-80
2023/04/29 08:13:25;;;;;;;26.20;17.73;;;11.50;99.90;;;;;;5117371;28;20582;-79
2023/04/29 08:15:53;;;;;;;25.77;16.97;;;11.50;99.90;;;;;;5120861;28;20200;-78
2023/04/29 08:18:21;;;;;;;24.80;16.67;;;12.00;99.90;;;;;;5122198;28;20200;-80
2023/04/29 08:20:48;;;;;;;21.90;15.90;;;12.30;99.90;;;;;;5114217;28;20216;-77
2023/04/29 08:23:15;;;;;;;22.27;15.50;;;12.10;99.90;;;;;;5122609;28;20265;-79
2023/04/29 08:25:43;;;;;;;20.40;14.60;;;12.40;99.90;;;;;;5122293;28;20193;-78
2023/04/29 08:28:10;;;;;;;20.83;13.60;;;12.70;99.90;;;;;;5115151;28;20600;-78
2023/04/29 08:30:39;;;;;;;20.53;13.77;;;12.40;99.90;;;;;;5110308;28;20233;-79
2023/04/29 08:33:08;;;;;;;18.13;13.37;;;12.60;99.90;;;;;;5100553;28;20224;-79
2023/04/29 08:35:36;;;;;;;19.07;13.17;;;12.90;99.90;;;;;;5111405;28;20200;-80
2023/04/29 08:38:05;;;;;;;20.73;13.47;;;12.90;99.90;;;;;;5120916;28;20209;-79
2023/04/29 08:40:34;;;;;;;18.83;13.63;;;13.30;99.90;;;;;;5117598;28;20582;-79
2023/04/29 08:43:02;;;;;;;19.93;13.10;;;13.40;99.90;;;;;;5108290;28;20637;-82
2023/04/29 08:45:30;;;;;;;17.50;12.60;;;13.20;99.90;;;;;;5108755;28;20671;-80
2023/04/29 08:47:58;;;;;;;17.90;12.47;;;13.40;99.90;;;;;;5112400;28;20562;-79
2023/04/29 08:51:10;;;;;;;18.87;12.37;;;13.50;99.90;;;;;;5158275;22;20227;-85
2023/04/29 08:53:55;;;;;;;16.60;11.07;;;13.40;99.90;;;;;;5133804;27;20220;-87
2023/04/29 08:56:48;;;;;;;16.53;11.60;;;13.50;99.90;;;;;;5132479;27;20204;-86
2023/04/29 08:59:24;;;;;;;16.57;11.37;;;13.50;99.90;;;;;;5140420;27;20223;-87
2023/04/29 09:02:10;;;;;;;16.53;11.07;;;13.70;99.90;;;;;;5155230;27;20618;-86
2023/04/29 09:04:56;;;;;;;14.23;10.50;;;13.60;99.90;;;;;;5144890;27;20204;-86
2023/04/29 09:08:02;;;;;;;15.43;10.83;;;13.60;99.90;;;;;;5134379;27;20218;-87
2023/04/29 09:10:53;;;;;;;15.33;10.67;;;13.50;99.90;;;;;;5150169;27;20211;-86
2023/04/29 09:13:48;;;;;;;16.17;9.97;;;13.70;99.90;;;;;;5154288;27;20248;-86
2023/04/29 09:16:26;;;;;;;16.60;10.63;;;13.30;99.90;;;;;;5113745;28;20299;-86
2023/04/29 09:18:57;;;;;;;13.53;10.33;;;13.40;99.90;;;;;;5115743;27;20204;-86
2023/04/29 09:21:32;;;;;;;13.03;9.80;;;13.50;99.90;;;;;;5133494;27;20295;-86
2023/04/29 09:24:11;;;;;;;14.17;10.07;;;13.60;99.90;;;;;;5133742;27;20666;-86
2023/04/29 09:40:52;;;;;;;12.23;9.23;;;14.00;99.90;;;;;;5051997;27;20216;-86
2023/04/29 09:47:33;;;;;;;13.13;8.77;;;14.20;99.90;;;;;;5150567;27;20214;-86
2023/04/29 10:00:21;;;;;;;13.73;8.87;;;14.20;99.90;;;;;;5054650;22;20694;-80
2023/04/29 10:02:49;;;;;;;12.02;8.55;;;14.10;99.90;;;;;;5091124;28;20204;-77
2023/04/29 10:05:17;;;;;;;13.33;7.40;;;14.40;99.90;;;;;;5082786;28;20206;-77
2023/04/29 10:07:47;;;;;;;12.33;8.40;;;14.60;99.90;;;;;;5074881;28;20226;-78
2023/04/29 10:10:14;;;;;;;12.00;8.03;;;14.40;99.90;;;;;;5076744;28;20202;-78
2023/04/29 10:12:43;;;;;;;12.20;8.63;;;14.60;99.90;;;;;;5082951;28;20234;-78
2023/04/29 10:15:22;;;;;;;12.15;8.13;;;14.70;99.90;;;;;;5087241;28;20197;-78
2023/04/29 10:17:52;;;;;;;12.02;8.45;;;14.80;99.90;;;;;;5082989;28;20209;-77
2023/04/29 10:20:23;;;;;;;14.75;9.18;;;14.70;99.90;;;;;;5076743;28;20210;-77
2023/04/29 10:22:51;;;;;;;11.10;8.00;;;14.40;99.90;;;;;;5087437;28;20229;-77
2023/04/29 10:25:20;;;;;;;12.93;8.50;;;14.50;99.90;;;;;;5089404;28;20220;-79
2023/04/29 10:27:50;;;;;;;11.55;9.05;;;14.30;99.90;;;;;;5075315;28;20228;-79
2023/04/29 10:30:18;;;;;;;15.00;9.55;;;14.30;99.90;;;;;;5077989;28;20221;-78
2023/04/29 10:32:46;;;;;;;12.40;9.40;;;14.50;99.90;;;;;;5091499;28;20218;-78
2023/04/29 10:35:15;;;;;;;14.43;9.75;;;14.60;99.90;;;;;;5080057;28;20203;-78
2023/04/29 10:37:43;;;;;;;13.23;8.85;;;14.80;99.90;;;;;;5093070;28;20206;-78
2023/04/29 10:40:14;;;;;;;15.75;10.02;;;14.60;99.90;;;;;;5075350;28;20213;-79
2023/04/29 10:42:45;;;;;;;13.68;9.10;;;14.20;99.90;;;;;;5080266;28;20286;-77
2023/04/29 10:45:25;;;;;;;13.20;9.20;;;14.20;99.90;;;;;;5083497;28;20255;-77
2023/04/29 10:48:12;;;;;;;16.80;9.52;;;14.20;99.90;;;;;;5083275;28;20202;-77
2023/04/29 10:51:03;;;;;;;14.25;9.93;;;14.20;99.90;;;;;;5082803;28;20253;-78
2023/04/29 10:53:30;;;;;;;14.65;9.43;;;14.30;99.90;;;;;;5088538;28;20229;-79
2023/04/29 10:55:59;;;;;;;11.68;8.93;;;14.30;99.90;;;;;;5075773;28;20206;-77
2023/04/29 10:58:43;;;;;;;12.50;8.77;;;14.30;99.90;;;;;;5083006;28;20663;-77
2023/04/29 11:01:13;;;;;;;15.05;9.60;;;14.50;99.90;;;;;;5076899;28;20313;-78
2023/04/29 11:03:49;;;;;;;13.65;9.63;;;14.30;99.90;;;;;;5078763;28;20280;-79
2023/04/29 11:06:16;;;;;;;12.98;9.40;;;14.20;99.90;;;;;;5074367;28;20205;-78
2023/04/29 11:08:43;;;;;;;14.18;9.50;;;14.30;99.90;;;;;;5079110;28;20206;-77
2023/04/29 11:11:12;;;;;;;13.98;9.50;;;14.30;99.90;;;;;;5088976;28;20225;-79
2023/04/29 11:13:41;;;;;;;14.10;9.80;;;14.70;99.90;;;;;;5083824;28;21071;-79
2023/04/29 11:16:09;;;;;;;13.07;9.70;;;14.60;99.90;;;;;;5079359;28;20293;-79
2023/04/29 11:18:57;;;;;;;14.67;9.97;;;14.80;99.90;;;;;;5090712;28;20214;-77
2023/04/29 11:21:24;;;;;;;16.85;10.32;;;14.50;99.90;;;;;;5079803;28;20226;-78
2023/04/29 11:23:51;;;;;;;14.75;9.80;;;14.50;99.90;;;;;;5093642;28;20198;-78
2023/04/29 11:26:20;;;;;;;17.48;10.20;;;14.80;99.90;;;;;;5091925;28;20297;-77
2023/04/29 11:28:48;;;;;;;16.55;11.10;;;14.80;99.90;;;;;;5094405;28;20931;-77
2023/04/29 11:31:15;;;;;;;12.32;9.32;;;14.70;99.90;;;;;;5085988;28;20706;-77
2023/04/29 11:33:43;;;;;;;11.80;8.35;;;14.60;99.90;;;;;;5078988;28;20248;-79
2023/04/29 11:36:11;;;;;;;12.57;8.25;;;14.40;99.90;;;;;;5093536;28;20197;-78
2023/04/29 11:38:40;;;;;;;10.98;8.40;;;14.20;99.90;;;;;;5084387;28;20237;-78
2023/04/29 11:41:07;;;;;;;13.02;8.35;;;14.40;99.90;;;;;;5075431;28;20415;-78
2023/04/29 11:43:34;;;;;;;10.95;8.20;;;14.40;99.90;;;;;;5081321;28;20210;-77
2023/04/29 11:46:01;;;;;;;11.55;8.20;;;14.30;99.90;;;;;;5085299;28;20285;-78
2023/04/29 11:48:29;;;;;;;13.50;9.07;;;14.20;99.90;;;;;;5082368;28;20214;-79
2023/04/29 11:50:59;;;;;;;12.45;8.75;;;14.30;99.90;;;;;;5077065;28;20229;-78
2023/04/29 11:53:27;;;;;;;11.80;8.32;;;14.50;99.90;;;;;;5091010;28;20254;-79
2023/04/29 11:55:54;;;;;;;13.07;7.97;;;14.70;99.90;;;;;;5090158;28;20520;-79
2023/04/29 11:58:22;;;;;;;11.85;8.60;;;14.80;99.90;;;;;;5100553;28;20209;-80
2023/04/29 12:00:49;;;;;;;13.13;7.95;;;14.80;99.90;;;;;;5095398;28;20718;-79
2023/04/29 12:03:18;;;;;;;10.23;7.45;;;14.80;99.90;;;;;;5077611;28;20206;-79
2023/04/29 12:05:48;;;;;;;11.45;6.93;;;14.90;99.90;;;;;;5095179;28;20202;-80
2023/04/29 12:08:19;;;;;;;11.23;7.57;;;15.00;99.90;;;;;;5092489;28;20212;-79
2023/04/29 12:10:48;;;;;;;9.68;7.10;;;15.20;99.90;;;;;;5076841;28;20241;-79
2023/04/29 12:13:15;;;;;;;13.05;7.20;;;15.20;99.90;;;;;;5077468;28;20214;-79
2023/04/29 12:15:42;;;;;;;11.00;7.13;;;15.40;99.90;;;;;;5080098;28;20202;-79
2023/04/29 12:18:09;;;;;;;11.38;6.70;;;15.50;99.90;;;;;;5077215;28;20217;-79
2023/04/29 12:20:38;;;;;;;10.20;7.00;;;15.40;99.90;;;;;;5080192;28;20202;-79
2023/04/29 12:23:12;;;;;;;11.77;7.07;;;15.50;99.90;;;;;;5080099;28;20217;-78
2023/04/29 12:25:41;;;;;;;10.27;6.80;;;15.70;99.90;;;;;;5081324;28;20251;-79
2023/04/29 12:28:12;;;;;;;8.52;6.75;;;15.70;99.90;;;;;;5079931;28;20210;-77
2023/04/29 12:30:39;;;;;;;11.27;6.68;;;15.70;99.90;;;;;;5072957;28;20275;-78
2023/04/29 12:33:08;;;;;;;8.93;6.57;;;15.60;99.90;;;;;;5077025;28;20560;-77
2023/04/29 12:35:35;;;;;;;10.85;7.30;;;15.60;99.90;;;;;;5080766;28;20222;-78
2023/04/29 12:38:02;;;;;;;10.13;6.65;;;15.60;99.90;;;;;;5075917;28;20251;-78
2023/04/29 12:40:29;;;;;;;10.20;7.00;;;15.60;99.90;;;;;;5084287;28;20216;-78
2023/04/29 12:42:57;;;;;;;9.45;6.50;;;15.60;99.90;;;;;;5080888;28;20204;-78
2023/04/29 12:45:29;;;;;;;9.55;6.78;;;15.50;99.90;;;;;;5081308;28;20614;-78
2023/04/29 12:47:57;;;;;;;9.75;7.63;;;15.80;99.90;;;;;;5081318;28;20604;-79
2023/04/29 12:50:33;;;;;;;9.18;7.00;;;15.60;99.90;;;;;;5077129;28;20217;-79
2023/04/29 12:53:00;;;;;;;10.68;7.85;;;15.80;99.90;;;;;;5084353;28;20205;-79
2023/04/29 12:55:27;;;;;;;10.68;7.40;;;15.70;99.90;;;;;;5079024;28;20630;-79
2023/04/29 12:57:54;;;;;;;8.77;6.38;;;15.50;99.90;;;;;;5084276;28;20198;-79
2023/04/29 13:00:23;;;;;;;8.68;6.63;;;15.40;99.90;;;;;;5090925;28;20629;-79
2023/04/29 13:02:50;;;;;;;11.70;7.00;;;15.20;99.90;;;;;;5090024;28;20202;-78
2023/04/29 13:05:17;;;;;;;11.10;6.45;;;15.00;99.90;;;;;;5080193;28;20205;-78
2023/04/29 13:07:44;;;;;;;11.52;6.68;;;15.00;99.90;;;;;;5076162;28;20280;-78
2023/04/29 13:10:12;;;;;;;8.98;6.50;;;15.30;99.90;;;;;;5086443;28;20236;-79